createdAt,value
2018-06-22T00:00:59.189Z,1011.48
2018-06-22T00:01:59.211Z,1011.52
2018-06-22T00:02:59.231Z,1011.52
2018-06-22T00:03:59.253Z,1011.55
2018-06-22T00:04:59.272Z,1011.48
2018-06-22T00:05:59.295Z,1011.51
2018-06-22T00:06:59.315Z,1011.51
2018-06-22T00:07:59.335Z,1011.52
2018-06-22T00:09:59.380Z,1011.49
2018-06-22T00:10:59.400Z,1011.53
2018-06-22T00:11:59.421Z,1011.48
2018-06-22T00:12:59.441Z,1011.47
2018-06-22T00:13:59.462Z,1011.48
2018-06-22T00:14:59.484Z,1011.47
2018-06-22T00:15:59.505Z,1011.52
2018-06-22T00:16:59.526Z,1011.53
2018-06-22T00:17:59.545Z,1011.56
2018-06-22T00:18:59.567Z,1011.55
2018-06-22T00:19:59.590Z,1011.56
2018-06-22T00:20:59.610Z,1011.59
2018-06-22T00:21:59.631Z,1011.47
2018-06-22T00:22:59.652Z,1011.49
2018-06-22T00:23:59.673Z,1011.58
2018-06-22T00:25:59.718Z,1011.52
2018-06-22T00:26:59.736Z,1011.47
2018-06-22T00:27:59.757Z,1011.55
2018-06-22T00:28:59.779Z,1011.5
2018-06-22T00:29:59.899Z,1011.49
2018-06-22T00:30:59.819Z,1011.51
2018-06-22T00:31:59.842Z,1011.58
2018-06-22T00:32:59.863Z,1011.54
2018-06-22T00:33:59.885Z,1011.52
2018-06-22T00:34:59.905Z,1011.58
2018-06-22T00:35:59.926Z,1011.45
2018-06-22T00:36:59.947Z,1011.42
2018-06-22T00:37:59.967Z,1011.46
2018-06-22T00:38:59.988Z,1011.42
2018-06-22T00:40:00.051Z,1011.48
2018-06-22T00:42:00.054Z,1011.52
2018-06-22T00:43:00.074Z,1011.44
2018-06-22T00:44:00.094Z,1011.49
2018-06-22T00:45:00.114Z,1011.43
2018-06-22T00:46:00.141Z,1011.43
2018-06-22T00:47:00.157Z,1011.48
2018-06-22T00:48:00.178Z,1011.39
2018-06-22T00:49:00.199Z,1011.46
2018-06-22T00:50:00.219Z,1011.45
2018-06-22T00:51:00.239Z,1011.39
2018-06-22T00:52:00.261Z,1011.42
2018-06-22T00:53:00.282Z,1011.43
2018-06-22T00:54:00.303Z,1011.44
2018-06-22T00:55:00.324Z,1011.35
2018-06-22T00:56:00.347Z,1011.34
2018-06-22T00:58:00.386Z,1011.25
2018-06-22T00:59:00.411Z,1011.27
2018-06-22T01:00:00.428Z,1011.26
2018-06-22T01:01:00.450Z,1011.29
2018-06-22T01:02:00.472Z,1011.28
2018-06-22T01:03:00.491Z,1011.3
2018-06-22T01:04:00.512Z,1011.15
2018-06-22T01:05:00.534Z,1011.33
2018-06-22T01:06:00.555Z,1011.19
2018-06-22T01:07:00.574Z,1011.27
2018-06-22T01:08:00.595Z,1011.21
2018-06-22T01:09:00.617Z,1011.26
2018-06-22T01:10:00.638Z,1011.15
2018-06-22T01:11:00.659Z,1011.15
2018-06-22T01:13:00.702Z,1011.26
2018-06-22T01:14:00.721Z,1011.14
2018-06-22T01:15:00.743Z,1011.23
2018-06-22T01:16:00.765Z,1011.14
2018-06-22T01:17:00.785Z,1011.2
2018-06-22T01:18:00.805Z,1011.18
2018-06-22T01:19:00.826Z,1011.17
2018-06-22T01:20:00.848Z,1011.21
2018-06-22T01:21:00.867Z,1011.2
2018-06-22T01:22:00.889Z,1011.15
2018-06-22T01:23:00.909Z,1011.17
2018-06-22T01:24:00.931Z,1011.27
2018-06-22T01:25:00.950Z,1011.2
2018-06-22T01:26:00.972Z,1011.2
2018-06-22T01:27:00.993Z,1011.13
2018-06-22T01:28:01.014Z,1011.19
2018-06-22T01:29:01.034Z,1011.25
2018-06-22T01:30:01.058Z,1011.24
2018-06-22T01:31:01.075Z,1011.21
2018-06-22T01:32:01.097Z,1011.21
2018-06-22T01:33:01.117Z,1011.23
2018-06-22T01:34:01.137Z,1011.17
2018-06-22T01:35:01.160Z,1011.23
2018-06-22T01:36:01.179Z,1011.09
2018-06-22T01:37:01.202Z,1011.15
2018-06-22T01:38:01.221Z,1011.16
2018-06-22T01:39:01.242Z,1011.13
2018-06-22T01:40:01.261Z,1011.19
2018-06-22T01:41:01.283Z,1011.14
2018-06-22T01:42:01.304Z,1011.11
2018-06-22T01:43:01.324Z,1011.14
2018-06-22T01:45:01.370Z,1011.11
2018-06-22T01:46:01.391Z,1011.13
2018-06-22T01:47:01.408Z,1011.11
2018-06-22T01:48:01.429Z,1011.07
2018-06-22T01:49:01.549Z,1011.07
2018-06-22T01:50:01.470Z,1011.07
2018-06-22T01:51:01.490Z,1011.06
2018-06-22T01:52:01.511Z,1011.1
2018-06-22T01:53:01.532Z,1011.02
2018-06-22T01:54:01.551Z,1011.04
2018-06-22T01:55:01.573Z,1011.07
2018-06-22T01:56:01.593Z,1011.09
2018-06-22T01:57:01.616Z,1011.12
2018-06-22T01:58:01.635Z,1011.1
2018-06-22T01:59:01.662Z,1011.09
2018-06-22T02:01:01.698Z,1011.11
2018-06-22T02:02:01.719Z,1011.06
2018-06-22T02:03:01.742Z,1011.07
2018-06-22T02:04:01.760Z,1011.08
2018-06-22T02:05:01.780Z,1011.08
2018-06-22T02:06:01.805Z,1011.18
2018-06-22T02:07:01.823Z,1011.06
2018-06-22T02:08:01.843Z,1011.03
2018-06-22T02:09:01.863Z,1011.18
2018-06-22T02:10:01.883Z,1011.07
2018-06-22T02:11:01.904Z,1011.11
2018-06-22T02:12:01.925Z,1011.06
2018-06-22T02:13:01.947Z,1011.09
2018-06-22T02:14:01.970Z,1011.05
2018-06-22T02:15:01.988Z,1011.06
2018-06-22T02:17:02.027Z,1011.04
2018-06-22T02:18:02.047Z,1011.06
2018-06-22T02:19:02.069Z,1011.09
2018-06-22T02:20:02.094Z,1011.05
2018-06-22T02:21:02.110Z,1011.06
2018-06-22T02:22:02.131Z,1011.09
2018-06-22T02:23:02.152Z,1011.1
2018-06-22T02:24:02.171Z,1011.07
2018-06-22T02:25:02.193Z,1011.14
2018-06-22T02:26:02.213Z,1011.08
2018-06-22T02:27:02.233Z,1011.16
2018-06-22T02:28:02.254Z,1011.06
2018-06-22T02:29:02.274Z,1011.04
2018-06-22T02:30:02.303Z,1011.06
2018-06-22T02:31:02.316Z,1011.16
2018-06-22T02:33:02.359Z,1011.08
2018-06-22T02:34:02.379Z,1011.1
2018-06-22T02:35:02.399Z,1011.08
2018-06-22T02:36:02.423Z,1011.09
2018-06-22T02:37:02.441Z,1011.09
2018-06-22T02:38:02.468Z,1011.12
2018-06-22T02:39:02.484Z,1011.06
2018-06-22T02:40:02.502Z,1011.04
2018-06-22T02:41:02.522Z,1011.05
2018-06-22T02:42:02.543Z,1011.1
2018-06-22T02:43:02.564Z,1011.13
2018-06-22T02:44:02.587Z,1011.11
2018-06-22T02:45:02.607Z,1011.13
2018-06-22T02:46:02.629Z,1011.11
2018-06-22T02:48:02.669Z,1011.05
2018-06-22T02:49:02.691Z,1011.06
2018-06-22T02:50:02.710Z,1011.12
2018-06-22T02:51:02.730Z,1011.08
2018-06-22T02:52:02.753Z,1011.08
2018-06-22T02:53:02.772Z,1011.09
2018-06-22T02:54:02.792Z,1011.13
2018-06-22T02:55:02.817Z,1011.15
2018-06-22T02:56:02.838Z,1011.12
2018-06-22T02:57:02.866Z,1011.11
2018-06-22T02:58:02.880Z,1011.04
2018-06-22T02:59:02.902Z,1011.12
2018-06-22T03:00:02.921Z,1011.16
2018-06-22T03:01:02.938Z,1011.06
2018-06-22T03:02:02.961Z,1011.01
2018-06-22T03:03:02.982Z,1011.05
2018-06-22T03:04:03.002Z,1011.06
2018-06-22T03:05:03.020Z,1011.04
2018-06-22T03:06:03.042Z,1011.04
2018-06-22T03:07:03.063Z,1011.02
2018-06-22T03:08:03.084Z,1011.02
2018-06-22T03:09:03.107Z,1011.04
2018-06-22T03:10:03.126Z,1010.99
2018-06-22T03:11:03.146Z,1011
2018-06-22T03:12:03.167Z,1010.97
2018-06-22T03:13:03.192Z,1011.05
2018-06-22T03:14:03.217Z,1011.04
2018-06-22T03:15:03.233Z,1010.99
2018-06-22T03:16:03.250Z,1011.06
2018-06-22T03:17:03.271Z,1011.02
2018-06-22T03:18:03.291Z,1010.98
2018-06-22T03:20:03.335Z,1010.98
2018-06-22T03:21:03.355Z,1011.02
2018-06-22T03:22:03.373Z,1011.05
2018-06-22T03:23:03.396Z,1010.98
2018-06-22T03:24:03.415Z,1011.02
2018-06-22T03:25:03.437Z,1011.04
2018-06-22T03:26:03.457Z,1011.04
2018-06-22T03:27:03.478Z,1011.02
2018-06-22T03:28:03.500Z,1011.04
2018-06-22T03:29:03.519Z,1010.97
2018-06-22T03:30:03.541Z,1011.03
2018-06-22T03:31:03.562Z,1011.01
2018-06-22T03:32:03.637Z,1010.99
2018-06-22T03:33:03.603Z,1010.98
2018-06-22T03:34:03.624Z,1011
2018-06-22T03:36:03.668Z,1010.96
2018-06-22T03:37:03.686Z,1010.98
2018-06-22T03:38:03.708Z,1010.86
2018-06-22T03:39:03.730Z,1010.87
2018-06-22T03:40:03.751Z,1010.92
2018-06-22T03:41:03.769Z,1010.97
2018-06-22T03:42:03.790Z,1011.02
2018-06-22T03:43:03.812Z,1010.99
2018-06-22T03:44:03.834Z,1011.04
2018-06-22T03:45:03.854Z,1010.98
2018-06-22T03:46:03.875Z,1011
2018-06-22T03:47:03.895Z,1011.01
2018-06-22T03:48:03.916Z,1010.95
2018-06-22T03:49:03.937Z,1011.04
2018-06-22T03:50:03.959Z,1011.02
2018-06-22T03:52:03.999Z,1010.98
2018-06-22T03:53:04.020Z,1011
2018-06-22T03:54:04.042Z,1011.03
2018-06-22T03:55:04.062Z,1011.04
2018-06-22T03:56:04.082Z,1010.96
2018-06-22T03:57:04.103Z,1011.04
2018-06-22T03:58:04.124Z,1011.03
2018-06-22T03:59:04.145Z,1010.99
2018-06-22T04:00:04.167Z,1011.03
2018-06-22T04:01:04.190Z,1011.1
2018-06-22T04:02:04.208Z,1011
2018-06-22T04:03:04.232Z,1011.06
2018-06-22T04:04:04.250Z,1011.05
2018-06-22T04:05:04.273Z,1010.99
2018-06-22T04:06:04.291Z,1011.01
2018-06-22T04:08:04.368Z,1010.99
2018-06-22T04:09:04.367Z,1011
2018-06-22T04:10:04.476Z,1010.98
2018-06-22T04:11:04.396Z,1010.97
2018-06-22T04:12:04.418Z,1010.94
2018-06-22T04:13:04.436Z,1011.01
2018-06-22T04:14:04.458Z,1011.01
2018-06-22T04:15:04.481Z,1011
2018-06-22T04:16:04.510Z,1011
2018-06-22T04:17:04.522Z,1011
2018-06-22T04:18:04.570Z,1011.03
2018-06-22T04:19:04.566Z,1011
2018-06-22T04:20:04.586Z,1011.03
2018-06-22T04:21:04.607Z,1011.03
2018-06-22T04:23:04.649Z,1011
2018-06-22T04:24:04.669Z,1011.03
2018-06-22T04:25:04.693Z,1011.05
2018-06-22T04:26:04.717Z,1011.04
2018-06-22T04:27:04.733Z,1011.05
2018-06-22T04:28:04.754Z,1010.97
2018-06-22T04:29:04.774Z,1010.99
2018-06-22T04:30:04.846Z,1010.99
2018-06-22T04:31:04.915Z,1010.99
2018-06-22T04:32:04.838Z,1010.93
2018-06-22T04:33:04.859Z,1010.99
2018-06-22T04:34:04.883Z,1011.03
2018-06-22T04:35:04.900Z,1011
2018-06-22T04:36:04.922Z,1011.03
2018-06-22T04:37:04.943Z,1011.1
2018-06-22T04:38:04.964Z,1011.02
2018-06-22T04:39:04.985Z,1010.97
2018-06-22T04:40:05.005Z,1010.95
2018-06-22T04:41:05.028Z,1011.01
2018-06-22T04:42:05.048Z,1011.05
2018-06-22T04:43:05.071Z,1010.96
2018-06-22T04:44:05.097Z,1010.93
2018-06-22T04:45:05.112Z,1010.98
2018-06-22T04:46:05.134Z,1010.95
2018-06-22T04:47:05.153Z,1010.97
2018-06-22T04:48:05.177Z,1010.99
2018-06-22T04:49:05.196Z,1010.94
2018-06-22T04:50:05.220Z,1010.96
2018-06-22T04:51:05.240Z,1010.93
2018-06-22T04:52:05.259Z,1010.95
2018-06-22T04:53:05.279Z,1010.96
2018-06-22T04:55:05.323Z,1010.9
2018-06-22T04:56:05.393Z,1011
2018-06-22T04:57:05.365Z,1010.99
2018-06-22T04:58:05.391Z,1011.07
2018-06-22T04:59:05.407Z,1011
2018-06-22T05:00:05.432Z,1010.99
2018-06-22T05:01:05.450Z,1011
2018-06-22T05:02:05.471Z,1010.95
2018-06-22T05:03:05.492Z,1010.95
2018-06-22T05:04:05.513Z,1011.04
2018-06-22T05:05:05.534Z,1011
2018-06-22T05:06:05.556Z,1011.06
2018-06-22T05:07:05.577Z,1011.03
2018-06-22T05:08:05.596Z,1010.99
2018-06-22T05:09:05.619Z,1011.02
2018-06-22T05:11:05.662Z,1010.96
2018-06-22T05:12:05.683Z,1010.95
2018-06-22T05:13:05.712Z,1010.95
2018-06-22T05:14:05.724Z,1011.02
2018-06-22T05:15:05.749Z,1010.99
2018-06-22T05:16:05.768Z,1010.98
2018-06-22T05:17:05.790Z,1010.98
2018-06-22T05:18:05.812Z,1010.99
2018-06-22T05:19:05.832Z,1010.96
2018-06-22T05:20:05.855Z,1010.99
2018-06-22T05:21:05.887Z,1011.01
2018-06-22T05:22:05.897Z,1010.98
2018-06-22T05:23:05.917Z,1011.01
2018-06-22T05:24:05.939Z,1011.02
2018-06-22T05:25:05.970Z,1010.96
2018-06-22T05:27:06.003Z,1010.93
2018-06-22T05:28:06.024Z,1010.97
2018-06-22T05:29:06.072Z,1011.11
2018-06-22T05:30:06.073Z,1010.97
2018-06-22T05:31:06.087Z,1010.95
2018-06-22T05:32:06.109Z,1010.86
2018-06-22T05:33:06.130Z,1010.94
2018-06-22T05:34:06.153Z,1010.99
2018-06-22T05:35:06.173Z,1010.92
2018-06-22T05:36:06.195Z,1010.91
2018-06-22T05:37:06.215Z,1010.95
2018-06-22T05:38:06.237Z,1011
2018-06-22T05:39:06.258Z,1010.95
2018-06-22T05:40:06.280Z,1010.97
2018-06-22T05:41:06.300Z,1010.93
2018-06-22T05:43:06.343Z,1010.94
2018-06-22T05:44:06.366Z,1010.93
2018-06-22T05:45:06.412Z,1010.97
2018-06-22T05:46:06.411Z,1010.93
2018-06-22T05:47:06.429Z,1010.98
2018-06-22T05:48:06.451Z,1010.94
2018-06-22T05:49:06.473Z,1010.97
2018-06-22T05:50:06.493Z,1010.93
2018-06-22T05:51:06.515Z,1010.94
2018-06-22T05:52:06.537Z,1010.86
2018-06-22T05:53:06.557Z,1010.89
2018-06-22T05:54:06.581Z,1010.89
2018-06-22T05:55:06.603Z,1010.9
2018-06-22T05:56:06.628Z,1010.96
2018-06-22T05:58:06.668Z,1010.92
2018-06-22T05:59:06.689Z,1010.95
2018-06-22T06:00:06.711Z,1010.94
2018-06-22T06:01:06.734Z,1010.94
2018-06-22T06:02:06.758Z,1011
2018-06-22T06:03:06.776Z,1010.97
2018-06-22T06:04:06.798Z,1011
2018-06-22T06:05:06.821Z,1011.01
2018-06-22T06:06:06.842Z,1011.04
2018-06-22T06:07:06.864Z,1011.05
2018-06-22T06:08:06.886Z,1011.07
2018-06-22T06:09:06.909Z,1011.05
2018-06-22T06:10:06.930Z,1011.09
2018-06-22T06:11:06.959Z,1010.97
2018-06-22T06:12:06.976Z,1011.04
2018-06-22T06:13:06.997Z,1011.09
2018-06-22T06:14:07.018Z,1011.09
2018-06-22T06:15:07.042Z,1011.09
2018-06-22T06:16:07.065Z,1010.99
2018-06-22T06:17:07.087Z,1010.96
2018-06-22T06:18:07.108Z,1011.05
2018-06-22T06:19:07.132Z,1010.94
2018-06-22T06:20:07.229Z,1010.89
2018-06-22T06:21:07.177Z,1010.93
2018-06-22T06:22:07.198Z,1010.97
2018-06-22T06:23:07.222Z,1010.97
2018-06-22T06:24:07.247Z,1010.98
2018-06-22T06:25:07.267Z,1010.98
2018-06-22T06:26:07.289Z,1010.87
2018-06-22T06:27:07.313Z,1010.92
2018-06-22T06:28:07.332Z,1010.94
2018-06-22T06:30:07.380Z,1010.98
2018-06-22T06:31:07.401Z,1010.96
2018-06-22T06:32:07.425Z,1010.99
2018-06-22T06:33:07.444Z,1010.95
2018-06-22T06:34:07.471Z,1010.97
2018-06-22T06:35:07.490Z,1011.01
2018-06-22T06:36:07.511Z,1010.9
2018-06-22T06:37:07.534Z,1010.91
2018-06-22T06:38:07.557Z,1010.96
2018-06-22T06:39:07.577Z,1010.94
2018-06-22T06:40:07.600Z,1010.89
2018-06-22T06:41:07.623Z,1010.95
2018-06-22T06:42:07.646Z,1010.97
2018-06-22T06:43:07.668Z,1011.01
2018-06-22T06:44:07.690Z,1010.99
2018-06-22T06:46:07.735Z,1011
2018-06-22T06:47:07.761Z,1011
2018-06-22T06:48:07.780Z,1010.94
2018-06-22T06:49:07.802Z,1010.98
2018-06-22T06:50:07.822Z,1011
2018-06-22T06:51:07.847Z,1011
2018-06-22T06:52:07.868Z,1010.99
2018-06-22T06:53:07.894Z,1010.92
2018-06-22T06:54:07.914Z,1010.98
2018-06-22T06:55:07.937Z,1010.96
2018-06-22T06:56:07.962Z,1011.01
2018-06-22T06:57:07.982Z,1010.97
2018-06-22T06:58:08.004Z,1011
2018-06-22T06:59:08.027Z,1011.03
2018-06-22T07:00:08.049Z,1011.04
2018-06-22T07:02:08.095Z,1011.06
2018-06-22T07:03:08.117Z,1011.03
2018-06-22T07:04:08.140Z,1011.01
2018-06-22T07:05:08.161Z,1011.06
2018-06-22T07:06:08.185Z,1011.1
2018-06-22T07:07:08.211Z,1011.05
2018-06-22T07:08:08.231Z,1011.08
2018-06-22T07:09:08.252Z,1011.06
2018-06-22T07:10:08.275Z,1010.98
2018-06-22T07:11:08.298Z,1011.04
2018-06-22T07:12:08.320Z,1011.1
2018-06-22T07:13:08.348Z,1011.06
2018-06-22T07:14:08.365Z,1011.02
2018-06-22T07:15:08.388Z,1011.15
2018-06-22T07:16:08.410Z,1011.15
2018-06-22T07:18:08.454Z,1011.15
2018-06-22T07:19:08.478Z,1011.21
2018-06-22T07:20:08.499Z,1011.17
2018-06-22T07:21:08.522Z,1011.17
2018-06-22T07:22:08.546Z,1011.17
2018-06-22T07:23:08.566Z,1011.24
2018-06-22T07:24:08.591Z,1011.15
2018-06-22T07:25:08.713Z,1011.21
2018-06-22T07:26:08.636Z,1011.26
2018-06-22T07:27:08.661Z,1011.25
2018-06-22T07:28:08.684Z,1011.23
2018-06-22T07:29:08.703Z,1011.22
2018-06-22T07:30:08.725Z,1011.26
2018-06-22T07:31:08.748Z,1011.28
2018-06-22T07:33:08.794Z,1011.23
2018-06-22T07:34:08.815Z,1011.29
2018-06-22T07:35:08.837Z,1011.2
2018-06-22T07:36:08.861Z,1011.29
2018-06-22T07:37:08.883Z,1011.3
2018-06-22T07:38:08.907Z,1011.29
2018-06-22T07:39:08.929Z,1011.3
2018-06-22T07:40:08.953Z,1011.33
2018-06-22T07:41:08.975Z,1011.34
2018-06-22T07:42:08.996Z,1011.28
2018-06-22T07:43:09.020Z,1011.31
2018-06-22T07:44:09.043Z,1011.28
2018-06-22T07:45:09.065Z,1011.3
2018-06-22T07:46:09.089Z,1011.29
2018-06-22T07:47:09.112Z,1011.28
2018-06-22T07:48:09.139Z,1011.29
2018-06-22T07:49:09.170Z,1011.33
2018-06-22T07:50:09.181Z,1011.35
2018-06-22T07:51:09.204Z,1011.29
2018-06-22T07:52:09.225Z,1011.28
2018-06-22T07:53:09.250Z,1011.3
2018-06-22T07:54:09.272Z,1011.4
2018-06-22T07:55:09.311Z,1011.36
2018-06-22T07:56:09.318Z,1011.35
2018-06-22T07:57:09.346Z,1011.32
2018-06-22T07:58:09.369Z,1011.33
2018-06-22T07:59:09.390Z,1011.37
2018-06-22T08:00:09.411Z,1011.36
2018-06-22T08:01:09.434Z,1011.34
2018-06-22T08:02:09.457Z,1011.41
2018-06-22T08:03:09.477Z,1011.39
2018-06-22T08:05:09.528Z,1011.33
2018-06-22T08:06:09.566Z,1011.35
2018-06-22T08:07:09.571Z,1011.39
2018-06-22T08:08:09.594Z,1011.44
2018-06-22T08:09:09.615Z,1011.48
2018-06-22T08:10:09.640Z,1011.47
2018-06-22T08:11:09.666Z,1011.45
2018-06-22T08:12:09.687Z,1011.51
2018-06-22T08:13:09.707Z,1011.55
2018-06-22T08:14:09.733Z,1011.5
2018-06-22T08:15:09.754Z,1011.53
2018-06-22T08:16:09.775Z,1011.53
2018-06-22T08:17:09.798Z,1011.5
2018-06-22T08:18:09.828Z,1011.56
2018-06-22T08:19:09.842Z,1011.56
2018-06-22T08:21:09.890Z,1011.55
2018-06-22T08:22:09.910Z,1011.63
2018-06-22T08:23:09.933Z,1011.61
2018-06-22T08:24:10.056Z,1011.61
2018-06-22T08:25:09.980Z,1011.66
2018-06-22T08:26:10.000Z,1011.64
2018-06-22T08:27:10.027Z,1011.68
2018-06-22T08:28:10.045Z,1011.66
2018-06-22T08:29:10.067Z,1011.69
2018-06-22T08:30:10.090Z,1011.7
2018-06-22T08:31:10.113Z,1011.73
2018-06-22T08:32:10.135Z,1011.73
2018-06-22T08:33:10.156Z,1011.69
2018-06-22T08:34:10.179Z,1011.8
2018-06-22T08:35:10.206Z,1011.81
2018-06-22T08:37:10.246Z,1011.69
2018-06-22T08:38:10.269Z,1011.73
2018-06-22T08:39:10.292Z,1011.8
2018-06-22T08:40:10.313Z,1011.79
2018-06-22T08:41:10.336Z,1011.77
2018-06-22T08:42:10.387Z,1011.76
2018-06-22T08:43:10.382Z,1011.79
2018-06-22T08:44:10.403Z,1011.83
2018-06-22T08:45:10.426Z,1011.8
2018-06-22T08:46:10.448Z,1011.79
2018-06-22T08:47:10.470Z,1011.84
2018-06-22T08:48:10.493Z,1011.84
2018-06-22T08:49:10.515Z,1011.87
2018-06-22T08:50:10.540Z,1011.89
2018-06-22T08:51:10.560Z,1011.99
2018-06-22T08:53:10.605Z,1011.93
2018-06-22T08:54:10.629Z,1011.9
2018-06-22T08:55:10.650Z,1011.89
2018-06-22T08:56:10.673Z,1011.94
2018-06-22T08:57:10.698Z,1011.97
2018-06-22T08:58:10.720Z,1011.99
2018-06-22T08:59:10.744Z,1012.12
2018-06-22T09:00:10.768Z,1012.11
2018-06-22T09:01:10.807Z,1012.01
2018-06-22T09:02:10.814Z,1012
2018-06-22T09:03:10.838Z,1011.97
2018-06-22T09:04:10.862Z,1012.02
2018-06-22T09:05:10.886Z,1012.01
2018-06-22T09:06:11.011Z,1012.03
2018-06-22T09:08:11.010Z,1012.01
2018-06-22T09:09:10.984Z,1012.03
2018-06-22T09:10:11.009Z,1012
2018-06-22T09:11:11.033Z,1012.05
2018-06-22T09:12:11.057Z,1012.17
2018-06-22T09:13:11.082Z,1012.09
2018-06-22T09:14:11.128Z,1012.17
2018-06-22T09:15:11.131Z,1012.13
2018-06-22T09:16:11.155Z,1012.14
2018-06-22T09:17:11.180Z,1012.12
2018-06-22T09:18:11.205Z,1012.04
2018-06-22T09:19:11.234Z,1012.09
2018-06-22T09:20:11.253Z,1012.08
2018-06-22T09:21:11.278Z,1012.06
2018-06-22T09:22:11.303Z,1012.08
2018-06-22T09:23:11.331Z,1012.05
2018-06-22T09:24:11.353Z,1012.03
2018-06-22T09:25:11.416Z,1012.02
2018-06-22T09:26:11.403Z,1012.04
2018-06-22T09:27:11.428Z,1012.03
2018-06-22T09:28:11.453Z,1011.94
2018-06-22T09:29:11.479Z,1012
2018-06-22T09:30:11.505Z,1012.06
2018-06-22T09:31:11.530Z,1011.99
2018-06-22T09:32:11.557Z,1012.06
2018-06-22T09:33:11.584Z,1012.01
2018-06-22T09:34:11.609Z,1012.11
2018-06-22T09:35:11.635Z,1011.99
2018-06-22T09:36:11.660Z,1012.09
2018-06-22T09:37:11.688Z,1012
2018-06-22T09:38:11.713Z,1012.08
2018-06-22T09:40:11.765Z,1012.05
2018-06-22T09:41:11.792Z,1011.98
2018-06-22T09:42:11.818Z,1011.97
2018-06-22T09:43:11.850Z,1012.03
2018-06-22T09:44:11.872Z,1012.13
2018-06-22T09:45:11.931Z,1012.12
2018-06-22T09:46:11.923Z,1012.08
2018-06-22T09:47:11.951Z,1012.15
2018-06-22T09:48:11.974Z,1012.18
2018-06-22T09:49:11.998Z,1012.25
2018-06-22T09:50:12.024Z,1012.17
2018-06-22T09:51:12.050Z,1012.18
2018-06-22T09:52:12.075Z,1012.21
2018-06-22T09:53:12.204Z,1012.27
2018-06-22T09:54:12.127Z,1012.26
2018-06-22T09:56:12.175Z,1012.19
2018-06-22T09:57:12.198Z,1012.21
2018-06-22T09:58:12.324Z,1012.19
2018-06-22T09:59:12.249Z,1012.19
2018-06-22T10:00:12.272Z,1012.23
2018-06-22T10:01:12.297Z,1012.39
2018-06-22T10:02:12.357Z,1012.28
2018-06-22T10:03:12.345Z,1012.25
2018-06-22T10:04:12.369Z,1012.21
2018-06-22T10:05:12.394Z,1012.28
2018-06-22T10:06:12.423Z,1012.34
2018-06-22T10:07:12.444Z,1012.29
2018-06-22T10:08:12.498Z,1012.32
2018-06-22T10:09:12.492Z,1012.28
2018-06-22T10:10:12.520Z,1012.33
2018-06-22T10:12:12.567Z,1012.29
2018-06-22T10:13:12.591Z,1012.24
2018-06-22T10:14:12.616Z,1012.3
2018-06-22T10:15:12.640Z,1012.27
2018-06-22T10:16:12.667Z,1012.28
2018-06-22T10:17:12.691Z,1012.27
2018-06-22T10:18:12.716Z,1012.27
2018-06-22T10:19:12.741Z,1012.3
2018-06-22T10:20:12.766Z,1012.35
2018-06-22T10:21:12.792Z,1012.3
2018-06-22T10:22:12.817Z,1012.4
2018-06-22T10:23:12.842Z,1012.35
2018-06-22T10:24:12.868Z,1012.4
2018-06-22T10:25:12.897Z,1012.41
2018-06-22T10:26:12.919Z,1012.42
2018-06-22T10:28:12.969Z,1012.47
2018-06-22T10:29:12.996Z,1012.46
2018-06-22T10:30:13.021Z,1012.38
2018-06-22T10:31:13.047Z,1012.47
2018-06-22T10:32:13.072Z,1012.45
2018-06-22T10:33:13.099Z,1012.41
2018-06-22T10:34:13.126Z,1012.43
2018-06-22T10:35:13.147Z,1012.4
2018-06-22T10:36:13.177Z,1012.39
2018-06-22T10:37:13.198Z,1012.35
2018-06-22T10:38:13.223Z,1012.36
2018-06-22T10:39:13.256Z,1012.33
2018-06-22T10:40:13.273Z,1012.33
2018-06-22T10:41:13.299Z,1012.33
2018-06-22T10:43:13.347Z,1012.38
2018-06-22T10:44:13.374Z,1012.35
2018-06-22T10:45:13.399Z,1012.38
2018-06-22T10:46:13.424Z,1012.31
2018-06-22T10:47:13.450Z,1012.3
2018-06-22T10:48:13.477Z,1012.27
2018-06-22T10:49:13.498Z,1012.25
2018-06-22T10:50:13.673Z,1012.24
2018-06-22T10:51:13.548Z,1012.26
2018-06-22T10:52:13.573Z,1012.27
2018-06-22T10:53:13.598Z,1012.27
2018-06-22T10:54:13.622Z,1012.3
2018-06-22T10:55:13.648Z,1012.29
2018-06-22T10:56:13.672Z,1012.28
2018-06-22T10:57:13.709Z,1012.27
2018-06-22T10:58:13.724Z,1012.27
2018-06-22T10:59:13.748Z,1012.27
2018-06-22T11:00:13.774Z,1012.25
2018-06-22T11:01:13.801Z,1012.25
2018-06-22T11:02:13.827Z,1012.26
2018-06-22T11:03:13.849Z,1012.27
2018-06-22T11:04:13.877Z,1012.25
2018-06-22T11:05:13.901Z,1012.27
2018-06-22T11:06:13.925Z,1012.24
2018-06-22T11:07:13.952Z,1012.21
2018-06-22T11:08:13.978Z,1012.19
2018-06-22T11:09:14.002Z,1012.14
2018-06-22T11:10:14.026Z,1012.12
2018-06-22T11:11:14.053Z,1012.16
2018-06-22T11:12:14.078Z,1012.17
2018-06-22T11:13:14.102Z,1012.14
2018-06-22T11:15:14.154Z,1012.08
2018-06-22T11:16:14.186Z,1012.07
2018-06-22T11:17:14.228Z,1012.07
2018-06-22T11:18:14.254Z,1012.1
2018-06-22T11:19:14.256Z,1012.09
2018-06-22T11:20:14.281Z,1012.08
2018-06-22T11:21:14.332Z,1012.11
2018-06-22T11:22:14.335Z,1012.04
2018-06-22T11:23:14.357Z,1012.14
2018-06-22T11:24:14.381Z,1012.08
2018-06-22T11:25:14.408Z,1012.03
2018-06-22T11:26:14.434Z,1012.14
2018-06-22T11:27:14.458Z,1012.01
2018-06-22T11:28:14.485Z,1012.08
2018-06-22T11:29:14.510Z,1012.11
2018-06-22T11:31:14.561Z,1012.05
2018-06-22T11:32:14.652Z,1012.02
2018-06-22T11:33:14.611Z,1012.14
2018-06-22T11:34:14.636Z,1012.11
2018-06-22T11:35:14.661Z,1012.18
2018-06-22T11:36:14.693Z,1012.16
2018-06-22T11:37:14.711Z,1012.21
2018-06-22T11:38:14.737Z,1012.19
2018-06-22T11:39:14.760Z,1012.3
2018-06-22T11:40:14.787Z,1012.31
2018-06-22T11:41:14.848Z,1012.29
2018-06-22T11:42:14.838Z,1012.3
2018-06-22T11:43:14.866Z,1012.35
2018-06-22T11:44:14.889Z,1012.34
2018-06-22T11:45:14.919Z,1012.39
2018-06-22T11:47:14.963Z,1012.12
2018-06-22T11:48:14.990Z,1012.27
2018-06-22T11:49:15.015Z,1012.27
2018-06-22T11:50:15.039Z,1012.23
2018-06-22T11:51:15.164Z,1012.24
2018-06-22T11:52:15.090Z,1012.23
2018-06-22T11:53:15.115Z,1012.24
2018-06-22T11:54:15.140Z,1012.24
2018-06-22T11:55:15.165Z,1012.25
2018-06-22T11:56:15.191Z,1012.28
2018-06-22T11:57:15.215Z,1012.29
2018-06-22T11:58:15.241Z,1012.26
2018-06-22T11:59:15.267Z,1012.24
2018-06-22T12:00:15.293Z,1012.23
2018-06-22T12:01:15.319Z,1012.27
2018-06-22T12:03:15.368Z,1012.22
2018-06-22T12:04:15.391Z,1012.22
2018-06-22T12:05:15.417Z,1012.27
2018-06-22T12:06:15.443Z,1012.3
2018-06-22T12:07:15.469Z,1012.21
2018-06-22T12:08:15.493Z,1012.26
2018-06-22T12:09:15.519Z,1012.29
2018-06-22T12:10:15.544Z,1012.27
2018-06-22T12:11:15.570Z,1012.26
2018-06-22T12:12:15.594Z,1012.29
2018-06-22T12:13:15.620Z,1012.31
2018-06-22T12:14:15.646Z,1012.3
2018-06-22T12:15:15.671Z,1012.22
2018-06-22T12:16:15.697Z,1012.4
2018-06-22T12:18:15.747Z,1012.18
2018-06-22T12:19:15.871Z,1012.32
2018-06-22T12:20:15.801Z,1012.33
2018-06-22T12:21:15.825Z,1012.3
2018-06-22T12:22:15.850Z,1012.26
2018-06-22T12:23:15.874Z,1012.29
2018-06-22T12:24:15.900Z,1012.36
2018-06-22T12:25:15.926Z,1012.28
2018-06-22T12:26:15.951Z,1012.29
2018-06-22T12:27:15.976Z,1012.28
2018-06-22T12:28:16.003Z,1012.26
2018-06-22T12:29:16.028Z,1012.26
2018-06-22T12:30:16.052Z,1012.21
2018-06-22T12:31:16.079Z,1012.19
2018-06-22T12:32:16.105Z,1012.27
2018-06-22T12:33:16.212Z,1012.27
2018-06-22T12:34:16.153Z,1012.21
2018-06-22T12:35:16.179Z,1012.22
2018-06-22T12:36:16.208Z,1012.29
2018-06-22T12:37:16.230Z,1012.21
2018-06-22T12:38:16.256Z,1012.1
2018-06-22T12:39:16.282Z,1012.2
2018-06-22T12:40:16.307Z,1012.28
2018-06-22T12:41:16.332Z,1012.3
2018-06-22T12:42:16.358Z,1012.28
2018-06-22T12:43:16.387Z,1012.22
2018-06-22T12:44:16.416Z,1012.33
2018-06-22T12:45:16.438Z,1012.23
2018-06-22T12:46:16.461Z,1012.35
2018-06-22T12:47:16.594Z,1012.29
2018-06-22T12:48:16.514Z,1012.22
2018-06-22T12:50:16.664Z,1012.25
2018-06-22T12:51:16.591Z,1012.25